sensor_id;sensor_type;location;lat;lon;timestamp;P1;durP1;ratioP1;P2;durP2;ratioP2
70045;SDS011;57385;41.832;23.494;2022-08-19T04:22:04;24.70;;;15.27;;
70045;SDS011;57385;41.832;23.494;2022-08-19T04:23:51;22.52;;;16.52;;
70045;SDS011;57385;41.832;23.494;2022-08-19T04:24:13;19.45;;;15.27;;
70045;SDS011;57385;41.832;23.494;2022-08-19T04:26:26;25.33;;;16.58;;
70045;SDS011;57385;41.832;23.494;2022-08-19T04:27:10;33.45;;;16.35;;
70045;SDS011;57385;41.832;23.494;2022-08-19T04:28:00;24.45;;;15.52;;
70045;SDS011;57385;41.832;23.494;2022-08-19T04:28:44;19.65;;;17.05;;
70045;SDS011;57385;41.832;23.494;2022-08-19T04:29:44;21.15;;;17.52;;
70045;SDS011;57385;41.832;23.494;2022-08-19T04:33:54;27.48;;;21.83;;
70045;SDS011;57385;41.832;23.494;2022-08-19T04:37:32;285.95;;;149.60;;
70045;SDS011;57385;41.832;23.494;2022-08-19T04:38:52;271.40;;;135.40;;
70045;SDS011;57385;41.832;23.494;2022-08-19T04:39:20;430.65;;;221.48;;
70045;SDS011;57385;41.832;23.494;2022-08-19T04:41:16;47.13;;;32.17;;
70045;SDS011;57385;41.832;23.494;2022-08-19T04:41:38;47.20;;;33.00;;
70045;SDS011;57385;41.832;23.494;2022-08-19T04:42:01;71.17;;;43.30;;
70045;SDS011;57385;41.832;23.494;2022-08-19T04:42:23;99.95;;;55.85;;
70045;SDS011;57385;41.832;23.494;2022-08-19T04:42:43;86.47;;;50.78;;
70045;SDS011;57385;41.832;23.494;2022-08-19T04:43:08;63.00;;;42.22;;
70045;SDS011;57385;41.832;23.494;2022-08-19T04:43:36;44.67;;;34.08;;
70045;SDS011;57385;41.832;23.494;2022-08-19T04:43:57;34.58;;;28.02;;
70045;SDS011;57385;41.832;23.494;2022-08-19T04:44:16;45.60;;;31.00;;
70045;SDS011;57385;41.832;23.494;2022-08-19T04:44:36;38.03;;;28.40;;
70045;SDS011;57385;41.832;23.494;2022-08-19T04:44:55;33.78;;;26.13;;
70045;SDS011;57385;41.832;23.494;2022-08-19T04:45:15;34.60;;;26.10;;
70045;SDS011;57385;41.832;23.494;2022-08-19T04:45:35;36.80;;;26.25;;
70045;SDS011;57385;41.832;23.494;2022-08-19T04:45:55;36.00;;;24.45;;
70045;SDS011;57385;41.832;23.494;2022-08-19T04:46:15;36.88;;;25.88;;
70045;SDS011;57385;41.832;23.494;2022-08-19T04:46:34;36.58;;;25.77;;
70045;SDS011;57385;41.832;23.494;2022-08-19T04:46:54;34.17;;;25.48;;
70045;SDS011;57385;41.832;23.494;2022-08-19T04:47:14;33.47;;;24.97;;
70045;SDS011;57385;41.832;23.494;2022-08-19T04:47:33;30.05;;;23.15;;
70045;SDS011;57385;41.832;23.494;2022-08-19T04:47:54;26.93;;;23.00;;
70045;SDS011;57385;41.832;23.494;2022-08-19T04:48:14;35.58;;;26.25;;
70045;SDS011;57385;41.832;23.494;2022-08-19T04:48:34;36.03;;;27.40;;
70045;SDS011;57385;41.832;23.494;2022-08-19T04:48:54;28.10;;;24.25;;
70045;SDS011;57385;41.832;23.494;2022-08-19T04:49:14;26.93;;;24.03;;
70045;SDS011;57385;41.832;23.494;2022-08-19T04:49:34;25.38;;;22.67;;
70045;SDS011;57385;41.832;23.494;2022-08-19T04:49:54;25.85;;;23.20;;
70045;SDS011;57385;41.832;23.494;2022-08-19T04:50:14;26.10;;;23.17;;
70045;SDS011;57385;41.832;23.494;2022-08-19T04:50:42;24.38;;;21.83;;
70045;SDS011;57385;41.832;23.494;2022-08-19T04:51:05;25.77;;;23.27;;
70045;SDS011;57385;41.832;23.494;2022-08-19T04:51:26;28.15;;;23.75;;
70045;SDS011;57385;41.832;23.494;2022-08-19T04:51:46;26.30;;;23.65;;
70045;SDS011;57385;41.832;23.494;2022-08-19T04:52:06;25.25;;;22.95;;
70045;SDS011;57385;41.832;23.494;2022-08-19T04:52:25;26.67;;;23.97;;
70045;SDS011;57385;41.832;23.494;2022-08-19T04:52:45;26.93;;;24.20;;
70045;SDS011;57385;41.832;23.494;2022-08-19T04:53:04;27.05;;;24.35;;
70045;SDS011;57385;41.832;23.494;2022-08-19T04:53:28;26.77;;;24.07;;
70045;SDS011;57385;41.832;23.494;2022-08-19T04:53:49;26.92;;;24.10;;
70045;SDS011;57385;41.832;23.494;2022-08-19T04:54:08;26.20;;;23.50;;
70045;SDS011;57385;41.832;23.494;2022-08-19T04:54:28;24.60;;;22.17;;
70045;SDS011;57385;41.832;23.494;2022-08-19T04:54:48;24.53;;;22.00;;
70045;SDS011;57385;41.832;23.494;2022-08-19T04:55:07;26.20;;;23.60;;
70045;SDS011;57385;41.832;23.494;2022-08-19T04:55:28;25.70;;;23.05;;
70045;SDS011;57385;41.832;23.494;2022-08-19T04:55:47;25.10;;;22.53;;
70045;SDS011;57385;41.832;23.494;2022-08-19T04:56:08;25.63;;;23.15;;
70045;SDS011;57385;41.832;23.494;2022-08-19T04:56:31;25.38;;;22.92;;
70045;SDS011;57385;41.832;23.494;2022-08-19T04:56:51;24.60;;;22.20;;
70045;SDS011;57385;41.832;23.494;2022-08-19T04:57:11;24.08;;;21.73;;
70045;SDS011;57385;41.832;23.494;2022-08-19T04:57:31;23.70;;;21.57;;
70045;SDS011;57385;41.832;23.494;2022-08-19T04:57:50;23.70;;;21.58;;
70045;SDS011;57385;41.832;23.494;2022-08-19T04:58:10;23.43;;;21.13;;
70045;SDS011;57385;41.832;23.494;2022-08-19T04:58:29;23.25;;;20.92;;
70045;SDS011;57385;41.832;23.494;2022-08-19T04:58:49;23.27;;;20.73;;
70045;SDS011;57385;41.832;23.494;2022-08-19T04:59:09;22.90;;;20.65;;
70045;SDS011;57385;41.832;23.494;2022-08-19T04:59:28;23.27;;;21.08;;
70045;SDS011;57385;41.832;23.494;2022-08-19T04:59:48;23.97;;;21.37;;
70045;SDS011;57385;41.832;23.494;2022-08-19T05:00:08;22.85;;;20.58;;
70045;SDS011;57385;41.832;23.494;2022-08-19T05:00:29;22.33;;;20.27;;
70045;SDS011;57385;41.832;23.494;2022-08-19T05:00:49;22.47;;;20.37;;
70045;SDS011;57385;41.832;23.494;2022-08-19T05:01:09;22.42;;;20.35;;
70045;SDS011;57385;41.832;23.494;2022-08-19T05:01:31;22.45;;;20.27;;
70045;SDS011;57385;41.832;23.494;2022-08-19T05:01:52;22.63;;;20.33;;
70045;SDS011;57385;41.832;23.494;2022-08-19T05:02:11;22.33;;;20.17;;
70045;SDS011;57385;41.832;23.494;2022-08-19T05:02:31;21.77;;;19.55;;
70045;SDS011;57385;41.832;23.494;2022-08-19T05:02:50;21.87;;;19.57;;
70045;SDS011;57385;41.832;23.494;2022-08-19T05:03:10;21.05;;;19.00;;
70045;SDS011;57385;41.832;23.494;2022-08-19T05:03:29;21.90;;;19.60;;
70045;SDS011;57385;41.832;23.494;2022-08-19T05:03:49;24.10;;;19.95;;
70045;SDS011;57385;41.832;23.494;2022-08-19T05:04:09;22.58;;;19.83;;
70045;SDS011;57385;41.832;23.494;2022-08-19T05:04:28;22.42;;;20.00;;
70045;SDS011;57385;41.832;23.494;2022-08-19T05:04:48;22.50;;;20.13;;
70045;SDS011;57385;41.832;23.494;2022-08-19T05:05:07;21.77;;;19.55;;
70045;SDS011;57385;41.832;23.494;2022-08-19T05:05:27;21.90;;;19.60;;
70045;SDS011;57385;41.832;23.494;2022-08-19T05:05:47;21.70;;;19.60;;
70045;SDS011;57385;41.832;23.494;2022-08-19T05:06:08;22.13;;;19.92;;
70045;SDS011;57385;41.832;23.494;2022-08-19T05:06:30;20.98;;;18.88;;
70045;SDS011;57385;41.832;23.494;2022-08-19T05:06:51;21.25;;;19.05;;
70045;SDS011;57385;41.832;23.494;2022-08-19T05:07:10;20.50;;;18.30;;
70045;SDS011;57385;41.832;23.494;2022-08-19T05:07:30;20.52;;;18.52;;
70045;SDS011;57385;41.832;23.494;2022-08-19T05:07:49;20.97;;;18.83;;
70045;SDS011;57385;41.832;23.494;2022-08-19T05:08:09;21.48;;;19.17;;
70045;SDS011;57385;41.832;23.494;2022-08-19T05:08:29;21.15;;;18.92;;
70045;SDS011;57385;41.832;23.494;2022-08-19T05:08:49;21.52;;;19.30;;
70045;SDS011;57385;41.832;23.494;2022-08-19T05:09:09;21.73;;;19.42;;
70045;SDS011;57385;41.832;23.494;2022-08-19T05:09:28;21.10;;;18.90;;
70045;SDS011;57385;41.832;23.494;2022-08-19T05:09:48;21.70;;;19.50;;
70045;SDS011;57385;41.832;23.494;2022-08-19T05:10:08;21.60;;;19.33;;
70045;SDS011;57385;41.832;23.494;2022-08-19T05:10:27;23.23;;;18.38;;
70045;SDS011;57385;41.832;23.494;2022-08-19T05:10:47;22.20;;;18.77;;
70045;SDS011;57385;41.832;23.494;2022-08-19T05:11:33;20.52;;;18.42;;
70045;SDS011;57385;41.832;23.494;2022-08-19T05:11:54;21.00;;;18.80;;
70045;SDS011;57385;41.832;23.494;2022-08-19T05:12:14;21.07;;;18.77;;
70045;SDS011;57385;41.832;23.494;2022-08-19T05:12:33;21.83;;;19.02;;
70045;SDS011;57385;41.832;23.494;2022-08-19T05:12:53;21.27;;;19.08;;
70045;SDS011;57385;41.832;23.494;2022-08-19T05:13:13;21.13;;;18.87;;
70045;SDS011;57385;41.832;23.494;2022-08-19T05:13:33;20.80;;;18.52;;
70045;SDS011;57385;41.832;23.494;2022-08-19T05:13:53;20.47;;;18.40;;
70045;SDS011;57385;41.832;23.494;2022-08-19T05:14:12;19.30;;;17.40;;
70045;SDS011;57385;41.832;23.494;2022-08-19T05:14:32;19.17;;;17.30;;
70045;SDS011;57385;41.832;23.494;2022-08-19T05:14:51;19.63;;;17.73;;
70045;SDS011;57385;41.832;23.494;2022-08-19T05:15:11;19.65;;;17.67;;
70045;SDS011;57385;41.832;23.494;2022-08-19T05:15:31;19.45;;;17.52;;
70045;SDS011;57385;41.832;23.494;2022-08-19T05:15:56;19.27;;;17.33;;
70045;SDS011;57385;41.832;23.494;2022-08-19T05:16:17;18.65;;;16.85;;
70045;SDS011;57385;41.832;23.494;2022-08-19T05:16:39;18.92;;;17.10;;
70045;SDS011;57385;41.832;23.494;2022-08-19T05:17:00;18.17;;;16.45;;
70045;SDS011;57385;41.832;23.494;2022-08-19T05:17:20;17.65;;;15.95;;
70045;SDS011;57385;41.832;23.494;2022-08-19T05:17:39;18.23;;;16.37;;
70045;SDS011;57385;41.832;23.494;2022-08-19T05:17:58;18.92;;;17.10;;
70045;SDS011;57385;41.832;23.494;2022-08-19T05:18:18;19.30;;;17.40;;
70045;SDS011;57385;41.832;23.494;2022-08-19T05:18:38;18.85;;;17.00;;
70045;SDS011;57385;41.832;23.494;2022-08-19T05:18:57;18.95;;;17.05;;
70045;SDS011;57385;41.832;23.494;2022-08-19T05:19:17;19.48;;;17.50;;
70045;SDS011;57385;41.832;23.494;2022-08-19T05:19:36;19.27;;;17.37;;
70045;SDS011;57385;41.832;23.494;2022-08-19T05:19:56;19.80;;;17.88;;
70045;SDS011;57385;41.832;23.494;2022-08-19T05:20:15;20.23;;;18.23;;
70045;SDS011;57385;41.832;23.494;2022-08-19T05:20:37;19.80;;;17.80;;
70045;SDS011;57385;41.832;23.494;2022-08-19T05:20:57;19.05;;;17.23;;
70045;SDS011;57385;41.832;23.494;2022-08-19T05:21:18;20.17;;;18.27;;
70045;SDS011;57385;41.832;23.494;2022-08-19T05:21:38;20.27;;;18.33;;
70045;SDS011;57385;41.832;23.494;2022-08-19T05:21:59;20.00;;;17.65;;
70045;SDS011;57385;41.832;23.494;2022-08-19T05:22:19;20.23;;;18.02;;
70045;SDS011;57385;41.832;23.494;2022-08-19T05:22:39;20.42;;;18.33;;
70045;SDS011;57385;41.832;23.494;2022-08-19T05:22:59;20.50;;;18.50;;
70045;SDS011;57385;41.832;23.494;2022-08-19T05:23:18;21.23;;;18.05;;
70045;SDS011;57385;41.832;23.494;2022-08-19T05:23:38;20.17;;;18.10;;
70045;SDS011;57385;41.832;23.494;2022-08-19T05:23:57;19.83;;;17.95;;
70045;SDS011;57385;41.832;23.494;2022-08-19T05:24:17;19.77;;;17.87;;
70045;SDS011;57385;41.832;23.494;2022-08-19T05:24:37;19.60;;;17.60;;
70045;SDS011;57385;41.832;23.494;2022-08-19T05:24:59;20.33;;;18.37;;
70045;SDS011;57385;41.832;23.494;2022-08-19T05:25:20;20.40;;;18.40;;
70045;SDS011;57385;41.832;23.494;2022-08-19T05:25:40;20.80;;;18.85;;
70045;SDS011;57385;41.832;23.494;2022-08-19T05:26:00;20.38;;;18.45;;
70045;SDS011;57385;41.832;23.494;2022-08-19T05:26:20;19.95;;;17.92;;
70045;SDS011;57385;41.832;23.494;2022-08-19T05:26:40;20.97;;;19.03;;
70045;SDS011;57385;41.832;23.494;2022-08-19T05:27:02;20.80;;;18.70;;
70045;SDS011;57385;41.832;23.494;2022-08-19T05:27:22;20.95;;;18.95;;
70045;SDS011;57385;41.832;23.494;2022-08-19T05:27:41;20.90;;;18.80;;
70045;SDS011;57385;41.832;23.494;2022-08-19T05:28:01;20.77;;;18.77;;
70045;SDS011;57385;41.832;23.494;2022-08-19T05:28:21;21.40;;;19.40;;
70045;SDS011;57385;41.832;23.494;2022-08-19T05:28:40;21.90;;;19.10;;
70045;SDS011;57385;41.832;23.494;2022-08-19T05:29:00;22.48;;;19.48;;
70045;SDS011;57385;41.832;23.494;2022-08-19T05:29:20;22.03;;;19.83;;
70045;SDS011;57385;41.832;23.494;2022-08-19T05:29:40;23.23;;;20.85;;
70045;SDS011;57385;41.832;23.494;2022-08-19T05:29:59;23.52;;;21.13;;
70045;SDS011;57385;41.832;23.494;2022-08-19T05:30:19;23.60;;;21.23;;
70045;SDS011;57385;41.832;23.494;2022-08-19T05:30:39;24.60;;;22.10;;
70045;SDS011;57385;41.832;23.494;2022-08-19T05:30:58;24.80;;;22.30;;
70045;SDS011;57385;41.832;23.494;2022-08-19T05:31:18;23.77;;;21.40;;
70045;SDS011;57385;41.832;23.494;2022-08-19T05:31:38;23.42;;;21.08;;
70045;SDS011;57385;41.832;23.494;2022-08-19T05:31:58;24.48;;;21.65;;
70045;SDS011;57385;41.832;23.494;2022-08-19T05:32:17;23.90;;;21.47;;
70045;SDS011;57385;41.832;23.494;2022-08-19T05:32:37;22.73;;;20.50;;
70045;SDS011;57385;41.832;23.494;2022-08-19T05:32:58;25.67;;;21.88;;
70045;SDS011;57385;41.832;23.494;2022-08-19T05:33:17;25.20;;;22.50;;
70045;SDS011;57385;41.832;23.494;2022-08-19T05:33:37;25.08;;;22.33;;
70045;SDS011;57385;41.832;23.494;2022-08-19T05:33:57;28.10;;;21.60;;
70045;SDS011;57385;41.832;23.494;2022-08-19T05:34:17;24.60;;;22.00;;
70045;SDS011;57385;41.832;23.494;2022-08-19T05:34:38;24.77;;;22.10;;
70045;SDS011;57385;41.832;23.494;2022-08-19T05:34:57;26.77;;;21.60;;
70045;SDS011;57385;41.832;23.494;2022-08-19T05:35:17;27.80;;;22.48;;
70045;SDS011;57385;41.832;23.494;2022-08-19T05:35:37;24.00;;;21.30;;
70045;SDS011;57385;41.832;23.494;2022-08-19T05:35:57;24.33;;;21.00;;
70045;SDS011;57385;41.832;23.494;2022-08-19T05:36:17;26.23;;;20.70;;
70045;SDS011;57385;41.832;23.494;2022-08-19T05:36:38;24.42;;;21.13;;
70045;SDS011;57385;41.832;23.494;2022-08-19T05:37:01;24.98;;;22.05;;
70045;SDS011;57385;41.832;23.494;2022-08-19T05:37:22;27.20;;;21.60;;
70045;SDS011;57385;41.832;23.494;2022-08-19T05:37:42;27.85;;;21.35;;
70045;SDS011;57385;41.832;23.494;2022-08-19T05:38:01;26.42;;;22.27;;
70045;SDS011;57385;41.832;23.494;2022-08-19T05:38:20;26.07;;;22.60;;
70045;SDS011;57385;41.832;23.494;2022-08-19T05:38:40;27.45;;;22.90;;
70045;SDS011;57385;41.832;23.494;2022-08-19T05:38:59;27.27;;;22.87;;
70045;SDS011;57385;41.832;23.494;2022-08-19T05:39:20;31.50;;;23.00;;
70045;SDS011;57385;41.832;23.494;2022-08-19T05:39:40;28.98;;;22.67;;
70045;SDS011;57385;41.832;23.494;2022-08-19T05:39:59;27.52;;;22.05;;
70045;SDS011;57385;41.832;23.494;2022-08-19T05:40:19;34.67;;;21.65;;
70045;SDS011;57385;41.832;23.494;2022-08-19T05:40:38;32.97;;;22.37;;
70045;SDS011;57385;41.832;23.494;2022-08-19T05:40:58;26.67;;;21.85;;
70045;SDS011;57385;41.832;23.494;2022-08-19T05:41:18;28.23;;;20.83;;
70045;SDS011;57385;41.832;23.494;2022-08-19T05:41:42;26.20;;;21.13;;
70045;SDS011;57385;41.832;23.494;2022-08-19T05:42:09;26.67;;;21.00;;
70045;SDS011;57385;41.832;23.494;2022-08-19T05:42:30;29.30;;;20.35;;
70045;SDS011;57385;41.832;23.494;2022-08-19T05:42:50;28.70;;;20.13;;
70045;SDS011;57385;41.832;23.494;2022-08-19T05:43:09;24.38;;;19.95;;
70045;SDS011;57385;41.832;23.494;2022-08-19T05:43:29;27.80;;;20.57;;
70045;SDS011;57385;41.832;23.494;2022-08-19T05:43:48;27.98;;;20.83;;
70045;SDS011;57385;41.832;23.494;2022-08-19T05:44:07;25.23;;;20.30;;
70045;SDS011;57385;41.832;23.494;2022-08-19T05:44:28;26.30;;;20.08;;
70045;SDS011;57385;41.832;23.494;2022-08-19T05:44:52;26.33;;;20.02;;
70045;SDS011;57385;41.832;23.494;2022-08-19T05:45:11;28.83;;;20.38;;
70045;SDS011;57385;41.832;23.494;2022-08-19T05:45:37;28.70;;;20.48;;
70045;SDS011;57385;41.832;23.494;2022-08-19T05:45:58;27.33;;;20.38;;
70045;SDS011;57385;41.832;23.494;2022-08-19T05:46:20;32.30;;;21.00;;
70045;SDS011;57385;41.832;23.494;2022-08-19T05:46:43;29.52;;;20.17;;
70045;SDS011;57385;41.832;23.494;2022-08-19T05:47:06;25.48;;;20.58;;
70045;SDS011;57385;41.832;23.494;2022-08-19T05:47:26;22.63;;;19.77;;
70045;SDS011;57385;41.832;23.494;2022-08-19T05:47:46;25.02;;;19.92;;
70045;SDS011;57385;41.832;23.494;2022-08-19T05:48:07;29.17;;;19.60;;
70045;SDS011;57385;41.832;23.494;2022-08-19T05:48:28;27.85;;;19.70;;
70045;SDS011;57385;41.832;23.494;2022-08-19T05:48:48;25.55;;;20.35;;
70045;SDS011;57385;41.832;23.494;2022-08-19T05:49:07;25.60;;;20.03;;
70045;SDS011;57385;41.832;23.494;2022-08-19T05:49:27;27.10;;;20.07;;
70045;SDS011;57385;41.832;23.494;2022-08-19T05:49:48;25.25;;;19.60;;
70045;SDS011;57385;41.832;23.494;2022-08-19T05:50:07;21.83;;;19.38;;
70045;SDS011;57385;41.832;23.494;2022-08-19T05:50:27;24.05;;;19.23;;
70045;SDS011;57385;41.832;23.494;2022-08-19T05:50:47;26.50;;;19.10;;
70045;SDS011;57385;41.832;23.494;2022-08-19T05:51:06;26.77;;;19.65;;
70045;SDS011;57385;41.832;23.494;2022-08-19T05:51:26;22.58;;;19.35;;
70045;SDS011;57385;41.832;23.494;2022-08-19T05:51:46;22.93;;;19.57;;
70045;SDS011;57385;41.832;23.494;2022-08-19T05:52:09;21.47;;;19.17;;
70045;SDS011;57385;41.832;23.494;2022-08-19T05:52:30;26.15;;;19.23;;
70045;SDS011;57385;41.832;23.494;2022-08-19T05:52:49;24.13;;;19.33;;
70045;SDS011;57385;41.832;23.494;2022-08-19T05:53:09;21.35;;;18.95;;
70045;SDS011;57385;41.832;23.494;2022-08-19T05:53:28;21.40;;;19.10;;
70045;SDS011;57385;41.832;23.494;2022-08-19T05:53:49;23.58;;;19.75;;
70045;SDS011;57385;41.832;23.494;2022-08-19T05:54:08;25.05;;;19.98;;
70045;SDS011;57385;41.832;23.494;2022-08-19T05:54:31;23.53;;;19.40;;
70045;SDS011;57385;41.832;23.494;2022-08-19T05:54:58;26.15;;;19.60;;
70045;SDS011;57385;41.832;23.494;2022-08-19T05:55:18;21.27;;;19.02;;
70045;SDS011;57385;41.832;23.494;2022-08-19T05:55:37;20.67;;;18.52;;
70045;SDS011;57385;41.832;23.494;2022-08-19T05:55:57;21.07;;;18.63;;
70045;SDS011;57385;41.832;23.494;2022-08-19T05:56:16;21.25;;;18.90;;
70045;SDS011;57385;41.832;23.494;2022-08-19T05:56:37;22.42;;;19.25;;
70045;SDS011;57385;41.832;23.494;2022-08-19T05:56:56;21.73;;;19.43;;
70045;SDS011;57385;41.832;23.494;2022-08-19T05:57:16;21.00;;;18.85;;
70045;SDS011;57385;41.832;23.494;2022-08-19T05:57:35;21.23;;;19.03;;
70045;SDS011;57385;41.832;23.494;2022-08-19T05:57:55;21.40;;;19.23;;
70045;SDS011;57385;41.832;23.494;2022-08-19T05:58:15;21.10;;;19.02;;
70045;SDS011;57385;41.832;23.494;2022-08-19T05:58:35;21.10;;;18.83;;
70045;SDS011;57385;41.832;23.494;2022-08-19T05:58:56;21.42;;;18.85;;
70045;SDS011;57385;41.832;23.494;2022-08-19T05:59:17;21.90;;;19.42;;
70045;SDS011;57385;41.832;23.494;2022-08-19T05:59:37;23.45;;;19.00;;
70045;SDS011;57385;41.832;23.494;2022-08-19T05:59:56;24.73;;;19.53;;
70045;SDS011;57385;41.832;23.494;2022-08-19T06:00:16;24.27;;;19.02;;
70045;SDS011;57385;41.832;23.494;2022-08-19T06:00:36;22.67;;;19.10;;
70045;SDS011;57385;41.832;23.494;2022-08-19T06:00:56;20.75;;;18.70;;
70045;SDS011;57385;41.832;23.494;2022-08-19T06:01:18;20.98;;;18.60;;
70045;SDS011;57385;41.832;23.494;2022-08-19T06:01:39;20.48;;;18.30;;
70045;SDS011;57385;41.832;23.494;2022-08-19T06:02:00;19.85;;;17.60;;
70045;SDS011;57385;41.832;23.494;2022-08-19T06:02:19;25.92;;;18.20;;
70045;SDS011;57385;41.832;23.494;2022-08-19T06:02:39;23.83;;;19.20;;
70045;SDS011;57385;41.832;23.494;2022-08-19T06:02:59;22.33;;;18.50;;
70045;SDS011;57385;41.832;23.494;2022-08-19T06:03:18;19.98;;;17.50;;
70045;SDS011;57385;41.832;23.494;2022-08-19T06:03:38;19.23;;;17.23;;
70045;SDS011;57385;41.832;23.494;2022-08-19T06:03:58;22.05;;;17.75;;
70045;SDS011;57385;41.832;23.494;2022-08-19T06:04:23;23.75;;;17.80;;
70045;SDS011;57385;41.832;23.494;2022-08-19T06:04:46;23.42;;;17.83;;
70045;SDS011;57385;41.832;23.494;2022-08-19T06:05:06;20.47;;;17.83;;
70045;SDS011;57385;41.832;23.494;2022-08-19T06:05:26;20.40;;;18.30;;
70045;SDS011;57385;41.832;23.494;2022-08-19T06:05:46;23.55;;;19.00;;
70045;SDS011;57385;41.832;23.494;2022-08-19T06:06:07;24.40;;;18.60;;
70045;SDS011;57385;41.832;23.494;2022-08-19T06:06:27;21.80;;;18.15;;
70045;SDS011;57385;41.832;23.494;2022-08-19T06:06:48;21.47;;;18.10;;
70045;SDS011;57385;41.832;23.494;2022-08-19T06:07:09;20.20;;;17.98;;
70045;SDS011;57385;41.832;23.494;2022-08-19T06:07:29;20.13;;;18.00;;
70045;SDS011;57385;41.832;23.494;2022-08-19T06:07:48;20.42;;;18.20;;
70045;SDS011;57385;41.832;23.494;2022-08-19T06:08:08;21.73;;;18.67;;
70045;SDS011;57385;41.832;23.494;2022-08-19T06:08:27;21.65;;;18.20;;
70045;SDS011;57385;41.832;23.494;2022-08-19T06:08:48;20.25;;;17.63;;
70045;SDS011;57385;41.832;23.494;2022-08-19T06:09:07;19.92;;;17.90;;
70045;SDS011;57385;41.832;23.494;2022-08-19T06:09:27;19.73;;;17.63;;
70045;SDS011;57385;41.832;23.494;2022-08-19T06:09:47;19.23;;;17.40;;
70045;SDS011;57385;41.832;23.494;2022-08-19T06:10:07;19.80;;;17.80;;
70045;SDS011;57385;41.832;23.494;2022-08-19T06:10:39;20.58;;;18.25;;
70045;SDS011;57385;41.832;23.494;2022-08-19T06:10:59;25.77;;;18.38;;
70045;SDS011;57385;41.832;23.494;2022-08-19T06:12:09;19.95;;;17.65;;
70045;SDS011;57385;41.832;23.494;2022-08-19T06:12:31;23.13;;;18.35;;
70045;SDS011;57385;41.832;23.494;2022-08-19T06:12:51;20.58;;;18.00;;
70045;SDS011;57385;41.832;23.494;2022-08-19T06:13:12;20.55;;;17.95;;
70045;SDS011;57385;41.832;23.494;2022-08-19T06:13:31;20.07;;;18.07;;
70045;SDS011;57385;41.832;23.494;2022-08-19T06:13:56;20.02;;;17.52;;
70045;SDS011;57385;41.832;23.494;2022-08-19T06:14:17;18.77;;;16.85;;
70045;SDS011;57385;41.832;23.494;2022-08-19T06:14:38;18.90;;;16.90;;
70045;SDS011;57385;41.832;23.494;2022-08-19T06:15:05;20.27;;;17.77;;
70045;SDS011;57385;41.832;23.494;2022-08-19T06:15:28;20.00;;;17.50;;
70045;SDS011;57385;41.832;23.494;2022-08-19T06:15:48;19.67;;;17.27;;
70045;SDS011;57385;41.832;23.494;2022-08-19T06:16:10;21.52;;;17.50;;
70045;SDS011;57385;41.832;23.494;2022-08-19T06:16:30;21.30;;;16.63;;
70045;SDS011;57385;41.832;23.494;2022-08-19T06:17:10;20.17;;;16.80;;
70045;SDS011;57385;41.832;23.494;2022-08-19T06:17:40;17.90;;;16.08;;
70045;SDS011;57385;41.832;23.494;2022-08-19T06:18:03;19.30;;;17.40;;
70045;SDS011;57385;41.832;23.494;2022-08-19T06:18:26;26.67;;;17.92;;
70045;SDS011;57385;41.832;23.494;2022-08-19T06:18:45;21.77;;;17.20;;
70045;SDS011;57385;41.832;23.494;2022-08-19T06:19:06;21.08;;;16.80;;
70045;SDS011;57385;41.832;23.494;2022-08-19T06:19:27;24.27;;;17.55;;
70045;SDS011;57385;41.832;23.494;2022-08-19T06:19:49;19.50;;;17.38;;
70045;SDS011;57385;41.832;23.494;2022-08-19T06:20:09;19.33;;;16.35;;
70045;SDS011;57385;41.832;23.494;2022-08-19T06:20:31;18.77;;;16.38;;
70045;SDS011;57385;41.832;23.494;2022-08-19T06:20:50;18.30;;;16.30;;
70045;SDS011;57385;41.832;23.494;2022-08-19T06:21:10;18.50;;;16.60;;
70045;SDS011;57385;41.832;23.494;2022-08-19T06:21:29;18.63;;;16.63;;
70045;SDS011;57385;41.832;23.494;2022-08-19T06:21:50;18.13;;;16.23;;
70045;SDS011;57385;41.832;23.494;2022-08-19T06:22:10;19.42;;;15.88;;
70045;SDS011;57385;41.832;23.494;2022-08-19T06:22:30;20.90;;;15.67;;
70045;SDS011;57385;41.832;23.494;2022-08-19T06:22:49;18.35;;;15.52;;
70045;SDS011;57385;41.832;23.494;2022-08-19T06:23:09;16.83;;;15.13;;
70045;SDS011;57385;41.832;23.494;2022-08-19T06:23:28;17.47;;;14.80;;
70045;SDS011;57385;41.832;23.494;2022-08-19T06:23:48;18.98;;;15.23;;
70045;SDS011;57385;41.832;23.494;2022-08-19T06:24:10;19.55;;;15.63;;
70045;SDS011;57385;41.832;23.494;2022-08-19T06:24:31;21.38;;;16.08;;
70045;SDS011;57385;41.832;23.494;2022-08-19T06:24:51;21.93;;;16.17;;
70045;SDS011;57385;41.832;23.494;2022-08-19T06:25:11;20.98;;;15.88;;
70045;SDS011;57385;41.832;23.494;2022-08-19T06:25:32;16.75;;;15.02;;
70045;SDS011;57385;41.832;23.494;2022-08-19T06:25:51;16.77;;;15.13;;
70045;SDS011;57385;41.832;23.494;2022-08-19T06:26:12;20.10;;;15.90;;
70045;SDS011;57385;41.832;23.494;2022-08-19T06:26:32;19.08;;;15.77;;
70045;SDS011;57385;41.832;23.494;2022-08-19T06:26:57;19.63;;;15.82;;
70045;SDS011;57385;41.832;23.494;2022-08-19T06:27:20;20.88;;;16.17;;
70045;SDS011;57385;41.832;23.494;2022-08-19T06:27:43;22.20;;;15.95;;
70045;SDS011;57385;41.832;23.494;2022-08-19T06:28:05;20.88;;;15.70;;
70045;SDS011;57385;41.832;23.494;2022-08-19T06:28:28;20.23;;;15.97;;
70045;SDS011;57385;41.832;23.494;2022-08-19T06:28:47;17.13;;;15.07;;
70045;SDS011;57385;41.832;23.494;2022-08-19T06:29:08;17.42;;;15.48;;
70045;SDS011;57385;41.832;23.494;2022-08-19T06:29:29;18.10;;;15.82;;
70045;SDS011;57385;41.832;23.494;2022-08-19T06:29:49;17.63;;;15.53;;
70045;SDS011;57385;41.832;23.494;2022-08-19T06:30:11;18.35;;;15.15;;
70045;SDS011;57385;41.832;23.494;2022-08-19T06:30:31;17.73;;;15.40;;
70045;SDS011;57385;41.832;23.494;2022-08-19T06:30:51;19.15;;;15.55;;
70045;SDS011;57385;41.832;23.494;2022-08-19T06:31:10;20.33;;;16.03;;
70045;SDS011;57385;41.832;23.494;2022-08-19T06:31:30;21.25;;;16.42;;
70045;SDS011;57385;41.832;23.494;2022-08-19T06:31:50;18.40;;;16.43;;
70045;SDS011;57385;41.832;23.494;2022-08-19T06:32:13;18.95;;;15.73;;
70045;SDS011;57385;41.832;23.494;2022-08-19T06:32:43;20.08;;;16.00;;
70045;SDS011;57385;41.832;23.494;2022-08-19T06:33:03;20.50;;;16.02;;
70045;SDS011;57385;41.832;23.494;2022-08-19T06:33:22;20.80;;;15.98;;
70045;SDS011;57385;41.832;23.494;2022-08-19T06:33:45;18.47;;;16.50;;
70045;SDS011;57385;41.832;23.494;2022-08-19T06:34:04;17.33;;;15.57;;
70045;SDS011;57385;41.832;23.494;2022-08-19T06:34:28;20.35;;;15.48;;
70045;SDS011;57385;41.832;23.494;2022-08-19T06:34:49;21.60;;;16.35;;
70045;SDS011;57385;41.832;23.494;2022-08-19T06:35:09;22.10;;;16.47;;
70045;SDS011;57385;41.832;23.494;2022-08-19T06:35:28;18.27;;;15.55;;
70045;SDS011;57385;41.832;23.494;2022-08-19T06:35:48;19.52;;;16.08;;
70045;SDS011;57385;41.832;23.494;2022-08-19T06:36:08;18.93;;;15.77;;
70045;SDS011;57385;41.832;23.494;2022-08-19T06:36:37;20.83;;;15.77;;
70045;SDS011;57385;41.832;23.494;2022-08-19T06:37:00;23.30;;;15.85;;